sensor_id;sensor_type;location;lat;lon;timestamp;P1;durP1;ratioP1;P2;durP2;ratioP2
69822;SDS011;57119;52.516;13.508;2023-04-24T00:02:13;7.60;;;3.93;;
69822;SDS011;57119;52.516;13.508;2023-04-24T00:04:39;8.07;;;4.30;;
69822;SDS011;57119;52.516;13.508;2023-04-24T00:07:06;7.90;;;4.30;;
69822;SDS011;57119;52.516;13.508;2023-04-24T00:09:32;8.10;;;4.68;;
69822;SDS011;57119;52.516;13.508;2023-04-24T00:11:58;8.63;;;4.53;;
69822;SDS011;57119;52.516;13.508;2023-04-24T00:14:23;9.03;;;5.00;;
69822;SDS011;57119;52.516;13.508;2023-04-24T00:16:49;9.05;;;4.43;;
69822;SDS011;57119;52.516;13.508;2023-04-24T00:19:15;8.93;;;4.70;;
69822;SDS011;57119;52.516;13.508;2023-04-24T00:21:41;8.52;;;4.68;;
69822;SDS011;57119;52.516;13.508;2023-04-24T00:24:07;8.33;;;4.40;;
69822;SDS011;57119;52.516;13.508;2023-04-24T00:26:34;9.55;;;5.10;;
69822;SDS011;57119;52.516;13.508;2023-04-24T00:28:59;8.67;;;4.40;;
69822;SDS011;57119;52.516;13.508;2023-04-24T00:31:24;9.40;;;4.72;;
69822;SDS011;57119;52.516;13.508;2023-04-24T00:33:50;9.77;;;5.23;;
69822;SDS011;57119;52.516;13.508;2023-04-24T00:36:15;9.33;;;5.47;;
69822;SDS011;57119;52.516;13.508;2023-04-24T00:38:41;9.00;;;4.60;;
69822;SDS011;57119;52.516;13.508;2023-04-24T00:41:06;8.70;;;5.20;;
69822;SDS011;57119;52.516;13.508;2023-04-24T00:43:32;9.95;;;5.00;;
69822;SDS011;57119;52.516;13.508;2023-04-24T00:45:57;9.03;;;4.80;;
69822;SDS011;57119;52.516;13.508;2023-04-24T00:48:24;8.75;;;5.25;;
69822;SDS011;57119;52.516;13.508;2023-04-24T00:50:50;9.30;;;5.03;;
69822;SDS011;57119;52.516;13.508;2023-04-24T00:53:15;10.35;;;5.30;;
69822;SDS011;57119;52.516;13.508;2023-04-24T00:55:40;9.23;;;5.13;;
69822;SDS011;57119;52.516;13.508;2023-04-24T00:58:06;9.03;;;4.80;;
69822;SDS011;57119;52.516;13.508;2023-04-24T01:00:31;8.93;;;4.77;;
69822;SDS011;57119;52.516;13.508;2023-04-24T01:02:57;10.53;;;5.47;;
69822;SDS011;57119;52.516;13.508;2023-04-24T01:05:24;9.65;;;4.93;;
69822;SDS011;57119;52.516;13.508;2023-04-24T01:07:51;9.45;;;5.10;;
69822;SDS011;57119;52.516;13.508;2023-04-24T01:10:16;9.07;;;5.00;;
69822;SDS011;57119;52.516;13.508;2023-04-24T01:12:42;9.88;;;5.20;;
69822;SDS011;57119;52.516;13.508;2023-04-24T01:15:08;10.55;;;5.60;;
69822;SDS011;57119;52.516;13.508;2023-04-24T01:17:34;10.00;;;5.43;;
69822;SDS011;57119;52.516;13.508;2023-04-24T01:20:00;10.82;;;5.80;;
69822;SDS011;57119;52.516;13.508;2023-04-24T01:22:25;9.03;;;4.90;;
69822;SDS011;57119;52.516;13.508;2023-04-24T01:24:52;10.32;;;4.85;;
69822;SDS011;57119;52.516;13.508;2023-04-24T01:27:18;9.10;;;4.65;;
69822;SDS011;57119;52.516;13.508;2023-04-24T01:29:44;10.02;;;5.10;;
69822;SDS011;57119;52.516;13.508;2023-04-24T01:32:10;10.20;;;4.93;;
69822;SDS011;57119;52.516;13.508;2023-04-24T01:34:35;11.18;;;4.95;;
69822;SDS011;57119;52.516;13.508;2023-04-24T01:37:02;10.03;;;5.27;;
69822;SDS011;57119;52.516;13.508;2023-04-24T01:39:27;9.88;;;5.00;;
69822;SDS011;57119;52.516;13.508;2023-04-24T01:41:53;8.70;;;4.80;;
69822;SDS011;57119;52.516;13.508;2023-04-24T01:44:19;9.00;;;4.65;;
69822;SDS011;57119;52.516;13.508;2023-04-24T01:46:45;8.68;;;4.88;;
69822;SDS011;57119;52.516;13.508;2023-04-24T01:49:11;9.73;;;4.80;;
69822;SDS011;57119;52.516;13.508;2023-04-24T01:51:36;9.47;;;4.90;;
69822;SDS011;57119;52.516;13.508;2023-04-24T01:54:02;9.23;;;4.97;;
69822;SDS011;57119;52.516;13.508;2023-04-24T01:56:30;8.50;;;5.03;;
69822;SDS011;57119;52.516;13.508;2023-04-24T01:58:58;9.13;;;5.35;;
69822;SDS011;57119;52.516;13.508;2023-04-24T02:01:25;9.18;;;5.15;;
69822;SDS011;57119;52.516;13.508;2023-04-24T02:03:51;9.20;;;5.30;;
69822;SDS011;57119;52.516;13.508;2023-04-24T02:06:16;9.97;;;4.63;;
69822;SDS011;57119;52.516;13.508;2023-04-24T02:08:42;8.47;;;4.77;;
69822;SDS011;57119;52.516;13.508;2023-04-24T02:11:10;9.07;;;5.30;;
69822;SDS011;57119;52.516;13.508;2023-04-24T02:13:36;9.40;;;4.93;;
69822;SDS011;57119;52.516;13.508;2023-04-24T02:16:01;9.50;;;5.40;;
69822;SDS011;57119;52.516;13.508;2023-04-24T02:18:27;9.80;;;5.47;;
69822;SDS011;57119;52.516;13.508;2023-04-24T02:20:52;10.13;;;5.17;;
69822;SDS011;57119;52.516;13.508;2023-04-24T02:23:17;10.13;;;4.90;;
69822;SDS011;57119;52.516;13.508;2023-04-24T02:25:43;9.23;;;4.95;;
69822;SDS011;57119;52.516;13.508;2023-04-24T02:28:08;9.87;;;5.67;;
69822;SDS011;57119;52.516;13.508;2023-04-24T02:30:34;9.13;;;5.47;;
69822;SDS011;57119;52.516;13.508;2023-04-24T02:32:59;9.83;;;6.07;;
69822;SDS011;57119;52.516;13.508;2023-04-24T02:35:24;8.90;;;5.23;;
69822;SDS011;57119;52.516;13.508;2023-04-24T02:37:50;9.47;;;5.40;;
69822;SDS011;57119;52.516;13.508;2023-04-24T02:40:15;11.00;;;5.17;;
69822;SDS011;57119;52.516;13.508;2023-04-24T02:42:40;11.50;;;5.70;;
69822;SDS011;57119;52.516;13.508;2023-04-24T02:45:06;8.93;;;5.33;;
69822;SDS011;57119;52.516;13.508;2023-04-24T02:47:32;9.60;;;5.13;;
69822;SDS011;57119;52.516;13.508;2023-04-24T02:49:57;10.53;;;5.63;;
69822;SDS011;57119;52.516;13.508;2023-04-24T02:52:23;9.77;;;5.83;;
69822;SDS011;57119;52.516;13.508;2023-04-24T02:54:48;9.20;;;4.70;;
69822;SDS011;57119;52.516;13.508;2023-04-24T02:57:14;11.30;;;6.03;;
69822;SDS011;57119;52.516;13.508;2023-04-24T02:59:40;8.82;;;5.07;;
69822;SDS011;57119;52.516;13.508;2023-04-24T03:02:05;9.70;;;5.50;;
69822;SDS011;57119;52.516;13.508;2023-04-24T03:04:30;10.93;;;6.23;;
69822;SDS011;57119;52.516;13.508;2023-04-24T03:06:57;11.00;;;6.10;;
69822;SDS011;57119;52.516;13.508;2023-04-24T03:09:22;10.47;;;6.10;;
69822;SDS011;57119;52.516;13.508;2023-04-24T03:11:47;10.38;;;5.70;;
69822;SDS011;57119;52.516;13.508;2023-04-24T03:14:14;9.57;;;5.80;;
69822;SDS011;57119;52.516;13.508;2023-04-24T03:16:39;9.82;;;5.60;;
69822;SDS011;57119;52.516;13.508;2023-04-24T03:19:05;11.87;;;5.83;;
69822;SDS011;57119;52.516;13.508;2023-04-24T03:21:30;12.07;;;6.20;;
69822;SDS011;57119;52.516;13.508;2023-04-24T03:23:56;11.80;;;6.10;;
69822;SDS011;57119;52.516;13.508;2023-04-24T03:26:21;10.63;;;6.18;;
69822;SDS011;57119;52.516;13.508;2023-04-24T03:28:47;9.93;;;5.77;;
69822;SDS011;57119;52.516;13.508;2023-04-24T03:31:12;11.77;;;6.17;;
69822;SDS011;57119;52.516;13.508;2023-04-24T03:33:37;10.43;;;5.87;;
69822;SDS011;57119;52.516;13.508;2023-04-24T03:36:03;9.80;;;5.97;;
69822;SDS011;57119;52.516;13.508;2023-04-24T03:38:29;9.43;;;5.57;;
69822;SDS011;57119;52.516;13.508;2023-04-24T03:40:55;9.90;;;5.77;;
69822;SDS011;57119;52.516;13.508;2023-04-24T03:43:20;11.50;;;5.85;;
69822;SDS011;57119;52.516;13.508;2023-04-24T03:45:46;10.80;;;6.20;;
69822;SDS011;57119;52.516;13.508;2023-04-24T03:48:11;10.50;;;6.07;;
69822;SDS011;57119;52.516;13.508;2023-04-24T03:50:37;9.93;;;5.80;;
69822;SDS011;57119;52.516;13.508;2023-04-24T03:53:02;10.30;;;5.30;;
69822;SDS011;57119;52.516;13.508;2023-04-24T03:55:28;9.53;;;5.70;;
69822;SDS011;57119;52.516;13.508;2023-04-24T03:57:53;10.87;;;6.53;;
69822;SDS011;57119;52.516;13.508;2023-04-24T04:00:19;10.83;;;5.97;;
69822;SDS011;57119;52.516;13.508;2023-04-24T04:02:45;9.57;;;6.03;;
69822;SDS011;57119;52.516;13.508;2023-04-24T04:05:11;9.60;;;5.77;;
69822;SDS011;57119;52.516;13.508;2023-04-24T04:07:36;9.53;;;5.17;;
69822;SDS011;57119;52.516;13.508;2023-04-24T04:10:02;9.10;;;5.87;;
69822;SDS011;57119;52.516;13.508;2023-04-24T04:12:28;8.27;;;5.22;;
69822;SDS011;57119;52.516;13.508;2023-04-24T04:14:53;10.20;;;6.27;;
69822;SDS011;57119;52.516;13.508;2023-04-24T04:17:19;9.20;;;5.47;;
69822;SDS011;57119;52.516;13.508;2023-04-24T04:19:44;9.60;;;5.22;;
69822;SDS011;57119;52.516;13.508;2023-04-24T04:22:10;8.73;;;5.07;;
69822;SDS011;57119;52.516;13.508;2023-04-24T04:24:35;10.43;;;5.17;;
69822;SDS011;57119;52.516;13.508;2023-04-24T04:27:03;9.23;;;5.03;;
69822;SDS011;57119;52.516;13.508;2023-04-24T04:29:29;8.88;;;5.25;;
69822;SDS011;57119;52.516;13.508;2023-04-24T04:31:56;10.33;;;5.33;;
69822;SDS011;57119;52.516;13.508;2023-04-24T04:34:22;11.93;;;5.00;;
69822;SDS011;57119;52.516;13.508;2023-04-24T04:36:48;11.07;;;5.90;;
69822;SDS011;57119;52.516;13.508;2023-04-24T04:39:13;9.77;;;5.67;;
69822;SDS011;57119;52.516;13.508;2023-04-24T04:41:40;9.20;;;4.72;;
69822;SDS011;57119;52.516;13.508;2023-04-24T04:44:06;11.05;;;5.45;;
69822;SDS011;57119;52.516;13.508;2023-04-24T04:46:33;9.23;;;6.03;;
69822;SDS011;57119;52.516;13.508;2023-04-24T04:48:59;9.57;;;4.70;;
69822;SDS011;57119;52.516;13.508;2023-04-24T04:51:26;10.30;;;4.90;;
69822;SDS011;57119;52.516;13.508;2023-04-24T04:53:52;8.85;;;4.82;;
69822;SDS011;57119;52.516;13.508;2023-04-24T04:56:18;9.43;;;4.47;;
69822;SDS011;57119;52.516;13.508;2023-04-24T04:58:43;7.80;;;4.30;;
69822;SDS011;57119;52.516;13.508;2023-04-24T05:01:08;9.87;;;5.57;;
69822;SDS011;57119;52.516;13.508;2023-04-24T05:03:34;7.77;;;4.53;;
69822;SDS011;57119;52.516;13.508;2023-04-24T05:06:00;9.25;;;4.88;;
69822;SDS011;57119;52.516;13.508;2023-04-24T05:08:27;8.15;;;4.63;;
69822;SDS011;57119;52.516;13.508;2023-04-24T05:10:52;7.93;;;4.63;;
69822;SDS011;57119;52.516;13.508;2023-04-24T05:13:18;8.35;;;4.57;;
69822;SDS011;57119;52.516;13.508;2023-04-24T05:15:43;8.40;;;4.70;;
69822;SDS011;57119;52.516;13.508;2023-04-24T05:18:08;9.17;;;4.20;;
69822;SDS011;57119;52.516;13.508;2023-04-24T05:20:34;10.48;;;5.15;;
69822;SDS011;57119;52.516;13.508;2023-04-24T05:22:59;7.80;;;4.67;;
69822;SDS011;57119;52.516;13.508;2023-04-24T05:25:25;7.87;;;4.10;;
69822;SDS011;57119;52.516;13.508;2023-04-24T05:27:51;7.82;;;4.20;;
69822;SDS011;57119;52.516;13.508;2023-04-24T05:30:16;8.13;;;4.17;;
69822;SDS011;57119;52.516;13.508;2023-04-24T05:32:41;10.10;;;3.90;;
69822;SDS011;57119;52.516;13.508;2023-04-24T05:35:07;8.03;;;3.57;;
69822;SDS011;57119;52.516;13.508;2023-04-24T05:37:32;7.72;;;4.03;;
69822;SDS011;57119;52.516;13.508;2023-04-24T05:39:58;9.63;;;3.90;;
69822;SDS011;57119;52.516;13.508;2023-04-24T05:42:23;7.60;;;4.10;;
69822;SDS011;57119;52.516;13.508;2023-04-24T05:44:49;7.55;;;3.42;;
69822;SDS011;57119;52.516;13.508;2023-04-24T05:47:15;7.93;;;4.07;;
69822;SDS011;57119;52.516;13.508;2023-04-24T05:49:41;6.72;;;3.58;;
69822;SDS011;57119;52.516;13.508;2023-04-24T05:52:06;7.87;;;3.60;;
69822;SDS011;57119;52.516;13.508;2023-04-24T05:54:33;6.93;;;3.25;;
69822;SDS011;57119;52.516;13.508;2023-04-24T05:56:59;8.77;;;3.87;;
69822;SDS011;57119;52.516;13.508;2023-04-24T05:59:26;7.50;;;2.97;;
69822;SDS011;57119;52.516;13.508;2023-04-24T06:01:51;7.73;;;3.20;;
69822;SDS011;57119;52.516;13.508;2023-04-24T06:04:17;6.68;;;3.45;;
69822;SDS011;57119;52.516;13.508;2023-04-24T06:06:42;6.97;;;3.23;;
69822;SDS011;57119;52.516;13.508;2023-04-24T06:09:07;8.10;;;2.87;;
69822;SDS011;57119;52.516;13.508;2023-04-24T06:11:33;5.80;;;2.90;;
69822;SDS011;57119;52.516;13.508;2023-04-24T06:13:58;7.77;;;2.57;;
69822;SDS011;57119;52.516;13.508;2023-04-24T06:16:24;6.23;;;3.13;;
69822;SDS011;57119;52.516;13.508;2023-04-24T06:18:50;5.73;;;2.40;;
69822;SDS011;57119;52.516;13.508;2023-04-24T06:21:16;6.30;;;2.50;;
69822;SDS011;57119;52.516;13.508;2023-04-24T06:23:41;6.57;;;2.08;;
69822;SDS011;57119;52.516;13.508;2023-04-24T06:26:07;5.67;;;2.40;;
69822;SDS011;57119;52.516;13.508;2023-04-24T06:28:32;4.97;;;2.00;;
69822;SDS011;57119;52.516;13.508;2023-04-24T06:30:58;5.03;;;1.88;;
69822;SDS011;57119;52.516;13.508;2023-04-24T06:33:23;7.33;;;1.93;;
69822;SDS011;57119;52.516;13.508;2023-04-24T06:35:49;5.13;;;1.83;;
69822;SDS011;57119;52.516;13.508;2023-04-24T06:38:14;5.13;;;1.50;;
69822;SDS011;57119;52.516;13.508;2023-04-24T06:40:40;3.75;;;1.38;;
69822;SDS011;57119;52.516;13.508;2023-04-24T06:43:06;4.00;;;1.60;;
69822;SDS011;57119;52.516;13.508;2023-04-24T06:45:32;4.93;;;1.90;;
69822;SDS011;57119;52.516;13.508;2023-04-24T06:47:57;5.35;;;2.03;;
69822;SDS011;57119;52.516;13.508;2023-04-24T06:50:22;4.17;;;1.80;;
69822;SDS011;57119;52.516;13.508;2023-04-24T06:52:49;4.68;;;2.08;;
69822;SDS011;57119;52.516;13.508;2023-04-24T06:55:14;3.97;;;1.60;;
69822;SDS011;57119;52.516;13.508;2023-04-24T06:57:41;4.50;;;1.77;;
69822;SDS011;57119;52.516;13.508;2023-04-24T07:00:07;4.53;;;1.40;;
69822;SDS011;57119;52.516;13.508;2023-04-24T07:02:34;4.28;;;1.77;;
69822;SDS011;57119;52.516;13.508;2023-04-24T07:05:00;4.30;;;1.60;;
69822;SDS011;57119;52.516;13.508;2023-04-24T07:07:26;3.72;;;1.60;;
69822;SDS011;57119;52.516;13.508;2023-04-24T07:09:54;5.00;;;1.70;;
69822;SDS011;57119;52.516;13.508;2023-04-24T07:12:21;5.70;;;1.83;;
69822;SDS011;57119;52.516;13.508;2023-04-24T07:14:47;3.83;;;1.30;;
69822;SDS011;57119;52.516;13.508;2023-04-24T07:17:13;4.07;;;1.52;;
69822;SDS011;57119;52.516;13.508;2023-04-24T07:19:39;4.47;;;1.55;;
69822;SDS011;57119;52.516;13.508;2023-04-24T07:22:05;3.92;;;1.15;;
69822;SDS011;57119;52.516;13.508;2023-04-24T07:24:31;3.77;;;1.50;;
69822;SDS011;57119;52.516;13.508;2023-04-24T07:26:59;3.53;;;1.30;;
69822;SDS011;57119;52.516;13.508;2023-04-24T07:29:26;4.38;;;1.55;;
69822;SDS011;57119;52.516;13.508;2023-04-24T07:31:51;3.43;;;1.50;;
69822;SDS011;57119;52.516;13.508;2023-04-24T07:34:18;4.55;;;1.42;;
69822;SDS011;57119;52.516;13.508;2023-04-24T07:36:44;4.07;;;1.27;;
69822;SDS011;57119;52.516;13.508;2023-04-24T07:39:11;4.73;;;1.27;;
69822;SDS011;57119;52.516;13.508;2023-04-24T07:41:36;4.03;;;1.50;;
69822;SDS011;57119;52.516;13.508;2023-04-24T07:44:01;4.87;;;1.70;;
69822;SDS011;57119;52.516;13.508;2023-04-24T07:46:27;4.23;;;1.20;;
69822;SDS011;57119;52.516;13.508;2023-04-24T07:48:54;3.25;;;1.30;;
69822;SDS011;57119;52.516;13.508;2023-04-24T07:51:20;3.00;;;1.10;;
69822;SDS011;57119;52.516;13.508;2023-04-24T07:53:45;4.00;;;1.30;;
69822;SDS011;57119;52.516;13.508;2023-04-24T07:56:11;4.45;;;1.38;;
69822;SDS011;57119;52.516;13.508;2023-04-24T07:58:36;4.43;;;1.30;;
69822;SDS011;57119;52.516;13.508;2023-04-24T08:01:02;4.47;;;1.30;;
69822;SDS011;57119;52.516;13.508;2023-04-24T08:03:27;4.25;;;1.30;;
69822;SDS011;57119;52.516;13.508;2023-04-24T08:05:53;2.83;;;1.10;;
69822;SDS011;57119;52.516;13.508;2023-04-24T08:08:20;4.80;;;1.30;;
69822;SDS011;57119;52.516;13.508;2023-04-24T08:10:47;4.45;;;1.70;;
69822;SDS011;57119;52.516;13.508;2023-04-24T08:13:12;4.67;;;2.40;;
69822;SDS011;57119;52.516;13.508;2023-04-24T08:15:38;6.07;;;2.63;;
69822;SDS011;57119;52.516;13.508;2023-04-24T08:18:03;4.10;;;1.43;;
69822;SDS011;57119;52.516;13.508;2023-04-24T08:20:29;4.00;;;1.47;;
69822;SDS011;57119;52.516;13.508;2023-04-24T08:22:54;3.30;;;1.10;;
69822;SDS011;57119;52.516;13.508;2023-04-24T08:25:20;3.63;;;1.40;;
69822;SDS011;57119;52.516;13.508;2023-04-24T08:27:45;3.80;;;1.20;;
69822;SDS011;57119;52.516;13.508;2023-04-24T08:30:11;3.75;;;1.70;;
69822;SDS011;57119;52.516;13.508;2023-04-24T08:32:36;3.63;;;1.67;;
69822;SDS011;57119;52.516;13.508;2023-04-24T08:35:02;4.03;;;1.20;;
69822;SDS011;57119;52.516;13.508;2023-04-24T08:37:28;3.90;;;1.38;;
69822;SDS011;57119;52.516;13.508;2023-04-24T08:39:54;3.95;;;1.33;;
69822;SDS011;57119;52.516;13.508;2023-04-24T08:42:20;3.80;;;1.73;;
69822;SDS011;57119;52.516;13.508;2023-04-24T08:44:46;4.32;;;1.50;;
69822;SDS011;57119;52.516;13.508;2023-04-24T08:47:14;3.38;;;1.40;;
69822;SDS011;57119;52.516;13.508;2023-04-24T08:49:40;4.00;;;1.40;;
69822;SDS011;57119;52.516;13.508;2023-04-24T08:52:07;4.87;;;2.17;;
69822;SDS011;57119;52.516;13.508;2023-04-24T08:54:36;5.22;;;2.10;;
69822;SDS011;57119;52.516;13.508;2023-04-24T08:57:02;3.45;;;1.77;;
69822;SDS011;57119;52.516;13.508;2023-04-24T08:59:28;3.08;;;1.60;;
69822;SDS011;57119;52.516;13.508;2023-04-24T09:01:54;3.00;;;1.13;;
69822;SDS011;57119;52.516;13.508;2023-04-24T09:04:21;3.17;;;0.90;;
69822;SDS011;57119;52.516;13.508;2023-04-24T09:06:57;2.90;;;0.93;;
69822;SDS011;57119;52.516;13.508;2023-04-24T09:09:23;3.25;;;1.10;;
69822;SDS011;57119;52.516;13.508;2023-04-24T09:11:50;3.13;;;1.30;;
69822;SDS011;57119;52.516;13.508;2023-04-24T09:14:18;4.05;;;1.35;;
69822;SDS011;57119;52.516;13.508;2023-04-24T09:16:44;3.57;;;1.37;;
69822;SDS011;57119;52.516;13.508;2023-04-24T09:19:10;6.00;;;1.48;;
69822;SDS011;57119;52.516;13.508;2023-04-24T09:21:36;5.37;;;1.80;;
69822;SDS011;57119;52.516;13.508;2023-04-24T09:24:03;6.30;;;1.45;;
69822;SDS011;57119;52.516;13.508;2023-04-24T09:26:31;3.92;;;1.85;;
69822;SDS011;57119;52.516;13.508;2023-04-24T09:28:58;5.13;;;1.40;;
69822;SDS011;57119;52.516;13.508;2023-04-24T09:31:23;2.78;;;1.35;;
69822;SDS011;57119;52.516;13.508;2023-04-24T09:36:27;4.18;;;1.20;;
69822;SDS011;57119;52.516;13.508;2023-04-24T09:38:58;2.90;;;1.08;;
69822;SDS011;57119;52.516;13.508;2023-04-24T09:41:24;4.27;;;1.20;;
69822;SDS011;57119;52.516;13.508;2023-04-24T09:43:51;2.70;;;1.05;;
69822;SDS011;57119;52.516;13.508;2023-04-24T09:46:19;3.20;;;1.30;;
69822;SDS011;57119;52.516;13.508;2023-04-24T09:48:44;4.33;;;1.20;;
69822;SDS011;57119;52.516;13.508;2023-04-24T09:51:10;4.63;;;1.30;;
69822;SDS011;57119;52.516;13.508;2023-04-24T09:53:37;3.67;;;1.20;;
69822;SDS011;57119;52.516;13.508;2023-04-24T09:56:07;5.07;;;1.50;;
69822;SDS011;57119;52.516;13.508;2023-04-24T09:58:35;4.90;;;1.30;;
69822;SDS011;57119;52.516;13.508;2023-04-24T10:01:01;2.92;;;1.05;;
69822;SDS011;57119;52.516;13.508;2023-04-24T10:03:29;4.60;;;1.42;;
69822;SDS011;57119;52.516;13.508;2023-04-24T10:06:02;3.03;;;1.10;;
69822;SDS011;57119;52.516;13.508;2023-04-24T10:08:34;4.57;;;1.25;;
69822;SDS011;57119;52.516;13.508;2023-04-24T10:11:00;4.57;;;1.45;;
69822;SDS011;57119;52.516;13.508;2023-04-24T10:13:27;3.40;;;1.35;;
69822;SDS011;57119;52.516;13.508;2023-04-24T10:15:53;4.70;;;1.33;;
69822;SDS011;57119;52.516;13.508;2023-04-24T10:18:19;3.10;;;1.30;;
69822;SDS011;57119;52.516;13.508;2023-04-24T10:20:46;5.68;;;1.70;;
69822;SDS011;57119;52.516;13.508;2023-04-24T10:23:11;4.17;;;1.70;;
69822;SDS011;57119;52.516;13.508;2023-04-24T10:25:37;3.67;;;1.60;;
69822;SDS011;57119;52.516;13.508;2023-04-24T10:28:03;3.43;;;1.50;;
69822;SDS011;57119;52.516;13.508;2023-04-24T10:30:30;3.80;;;1.45;;
69822;SDS011;57119;52.516;13.508;2023-04-24T10:33:00;5.00;;;1.50;;
69822;SDS011;57119;52.516;13.508;2023-04-24T10:35:27;4.97;;;1.50;;
69822;SDS011;57119;52.516;13.508;2023-04-24T10:37:57;2.85;;;1.30;;
69822;SDS011;57119;52.516;13.508;2023-04-24T10:40:27;4.03;;;1.23;;
69822;SDS011;57119;52.516;13.508;2023-04-24T10:42:56;2.70;;;0.88;;
69822;SDS011;57119;52.516;13.508;2023-04-24T10:45:22;3.87;;;1.33;;
69822;SDS011;57119;52.516;13.508;2023-04-24T10:50:26;3.90;;;0.98;;
69822;SDS011;57119;52.516;13.508;2023-04-24T10:53:06;3.85;;;1.08;;
69822;SDS011;57119;52.516;13.508;2023-04-24T10:56:19;3.17;;;1.23;;
69822;SDS011;57119;52.516;13.508;2023-04-24T10:58:42;7.60;;;1.73;;
69822;SDS011;57119;52.516;13.508;2023-04-24T11:01:29;5.15;;;1.30;;
69822;SDS011;57119;52.516;13.508;2023-04-24T11:04:00;4.07;;;1.55;;
69822;SDS011;57119;52.516;13.508;2023-04-24T11:06:30;3.95;;;1.10;;
69822;SDS011;57119;52.516;13.508;2023-04-24T11:09:04;3.60;;;1.37;;
69822;SDS011;57119;52.516;13.508;2023-04-24T11:11:32;3.83;;;1.42;;
69822;SDS011;57119;52.516;13.508;2023-04-24T11:21:39;6.10;;;2.83;;
69822;SDS011;57119;52.516;13.508;2023-04-24T11:27:13;3.47;;;1.60;;
69822;SDS011;57119;52.516;13.508;2023-04-24T11:35:20;2.97;;;1.20;;
69822;SDS011;57119;52.516;13.508;2023-04-24T11:37:50;5.93;;;1.95;;
69822;SDS011;57119;52.516;13.508;2023-04-24T11:40:17;4.90;;;1.70;;
69822;SDS011;57119;52.516;13.508;2023-04-24T11:42:51;4.00;;;2.00;;
69822;SDS011;57119;52.516;13.508;2023-04-24T11:45:18;4.90;;;1.73;;
69822;SDS011;57119;52.516;13.508;2023-04-24T11:47:48;3.95;;;1.80;;
69822;SDS011;57119;52.516;13.508;2023-04-24T11:50:14;3.03;;;1.50;;
69822;SDS011;57119;52.516;13.508;2023-04-24T11:52:42;3.67;;;1.60;;
69822;SDS011;57119;52.516;13.508;2023-04-24T11:57:42;4.13;;;2.40;;
69822;SDS011;57119;52.516;13.508;2023-04-24T12:00:14;4.07;;;1.83;;
69822;SDS011;57119;52.516;13.508;2023-04-24T12:02:50;4.33;;;2.00;;
69822;SDS011;57119;52.516;13.508;2023-04-24T12:05:20;5.55;;;2.97;;
69822;SDS011;57119;52.516;13.508;2023-04-24T12:07:50;3.72;;;2.22;;
69822;SDS011;57119;52.516;13.508;2023-04-24T12:10:23;5.72;;;2.92;;
69822;SDS011;57119;52.516;13.508;2023-04-24T12:12:50;5.10;;;2.60;;
69822;SDS011;57119;52.516;13.508;2023-04-24T12:15:16;5.13;;;2.77;;
69822;SDS011;57119;52.516;13.508;2023-04-24T12:17:43;3.33;;;1.95;;
69822;SDS011;57119;52.516;13.508;2023-04-24T12:20:09;4.47;;;2.65;;
69822;SDS011;57119;52.516;13.508;2023-04-24T12:25:21;4.32;;;2.60;;
69822;SDS011;57119;52.516;13.508;2023-04-24T12:27:52;5.53;;;2.50;;
69822;SDS011;57119;52.516;13.508;2023-04-24T12:30:43;5.55;;;2.85;;
69822;SDS011;57119;52.516;13.508;2023-04-24T12:33:16;4.53;;;2.92;;
69822;SDS011;57119;52.516;13.508;2023-04-24T12:35:45;6.28;;;3.10;;
69822;SDS011;57119;52.516;13.508;2023-04-24T12:38:11;4.20;;;2.43;;
69822;SDS011;57119;52.516;13.508;2023-04-24T12:40:38;3.35;;;1.50;;
69822;SDS011;57119;52.516;13.508;2023-04-24T12:43:14;4.07;;;2.00;;
69822;SDS011;57119;52.516;13.508;2023-04-24T12:45:40;3.83;;;1.52;;
69822;SDS011;57119;52.516;13.508;2023-04-24T12:48:06;4.03;;;1.70;;
69822;SDS011;57119;52.516;13.508;2023-04-24T12:50:31;4.70;;;1.77;;
69822;SDS011;57119;52.516;13.508;2023-04-24T12:52:56;3.33;;;1.70;;
69822;SDS011;57119;52.516;13.508;2023-04-24T12:55:22;4.27;;;1.23;;
69822;SDS011;57119;52.516;13.508;2023-04-24T12:57:47;2.70;;;1.30;;
69822;SDS011;57119;52.516;13.508;2023-04-24T13:00:13;3.00;;;1.27;;
69822;SDS011;57119;52.516;13.508;2023-04-24T13:02:39;3.92;;;1.27;;
69822;SDS011;57119;52.516;13.508;2023-04-24T13:05:05;4.47;;;2.47;;
69822;SDS011;57119;52.516;13.508;2023-04-24T13:07:30;3.33;;;1.13;;
69822;SDS011;57119;52.516;13.508;2023-04-24T13:09:56;4.93;;;1.90;;
69822;SDS011;57119;52.516;13.508;2023-04-24T13:12:22;3.50;;;2.20;;
69822;SDS011;57119;52.516;13.508;2023-04-24T13:14:49;4.13;;;1.50;;
69822;SDS011;57119;52.516;13.508;2023-04-24T13:17:14;2.90;;;1.10;;
69822;SDS011;57119;52.516;13.508;2023-04-24T13:19:40;2.80;;;1.20;;
69822;SDS011;57119;52.516;13.508;2023-04-24T13:22:08;3.35;;;1.58;;
69822;SDS011;57119;52.516;13.508;2023-04-24T13:24:37;4.25;;;2.42;;
69822;SDS011;57119;52.516;13.508;2023-04-24T13:27:05;4.33;;;2.27;;
69822;SDS011;57119;52.516;13.508;2023-04-24T13:29:30;4.57;;;2.45;;
69822;SDS011;57119;52.516;13.508;2023-04-24T13:31:55;3.30;;;1.70;;
69822;SDS011;57119;52.516;13.508;2023-04-24T13:34:24;4.22;;;2.78;;
69822;SDS011;57119;52.516;13.508;2023-04-24T13:36:50;3.90;;;2.40;;
69822;SDS011;57119;52.516;13.508;2023-04-24T13:39:17;4.10;;;2.38;;
69822;SDS011;57119;52.516;13.508;2023-04-24T13:41:42;3.57;;;1.80;;
69822;SDS011;57119;52.516;13.508;2023-04-24T13:44:08;3.95;;;1.63;;
69822;SDS011;57119;52.516;13.508;2023-04-24T13:46:34;4.30;;;1.83;;
69822;SDS011;57119;52.516;13.508;2023-04-24T13:48:59;3.28;;;1.58;;
69822;SDS011;57119;52.516;13.508;2023-04-24T13:51:25;3.53;;;1.73;;
69822;SDS011;57119;52.516;13.508;2023-04-24T13:53:54;3.35;;;1.80;;
69822;SDS011;57119;52.516;13.508;2023-04-24T13:56:20;3.63;;;1.75;;
69822;SDS011;57119;52.516;13.508;2023-04-24T13:58:46;3.87;;;2.30;;
69822;SDS011;57119;52.516;13.508;2023-04-24T14:01:11;3.60;;;1.92;;
69822;SDS011;57119;52.516;13.508;2023-04-24T14:03:38;3.80;;;1.48;;
69822;SDS011;57119;52.516;13.508;2023-04-24T14:06:03;5.50;;;1.90;;
69822;SDS011;57119;52.516;13.508;2023-04-24T14:08:29;4.55;;;2.13;;
69822;SDS011;57119;52.516;13.508;2023-04-24T14:10:54;4.53;;;2.43;;
69822;SDS011;57119;52.516;13.508;2023-04-24T14:13:20;4.03;;;2.47;;
69822;SDS011;57119;52.516;13.508;2023-04-24T14:15:45;5.82;;;3.20;;
69822;SDS011;57119;52.516;13.508;2023-04-24T14:18:11;3.60;;;1.90;;
69822;SDS011;57119;52.516;13.508;2023-04-24T14:20:36;4.87;;;1.90;;
69822;SDS011;57119;52.516;13.508;2023-04-24T14:23:02;5.05;;;1.85;;
69822;SDS011;57119;52.516;13.508;2023-04-24T14:25:28;5.47;;;1.40;;
69822;SDS011;57119;52.516;13.508;2023-04-24T14:27:54;3.47;;;1.30;;
69822;SDS011;57119;52.516;13.508;2023-04-24T14:30:20;3.63;;;1.73;;
69822;SDS011;57119;52.516;13.508;2023-04-24T14:32:45;3.38;;;1.20;;
69822;SDS011;57119;52.516;13.508;2023-04-24T14:35:11;4.37;;;1.17;;
69822;SDS011;57119;52.516;13.508;2023-04-24T14:37:36;4.30;;;1.27;;
69822;SDS011;57119;52.516;13.508;2023-04-24T14:40:02;5.72;;;1.65;;
69822;SDS011;57119;52.516;13.508;2023-04-24T14:42:30;4.18;;;2.30;;
69822;SDS011;57119;52.516;13.508;2023-04-24T14:44:55;4.13;;;2.40;;
69822;SDS011;57119;52.516;13.508;2023-04-24T14:47:21;3.83;;;1.67;;
69822;SDS011;57119;52.516;13.508;2023-04-24T14:49:47;2.73;;;1.10;;
69822;SDS011;57119;52.516;13.508;2023-04-24T14:52:13;2.65;;;0.90;;
69822;SDS011;57119;52.516;13.508;2023-04-24T14:54:38;2.90;;;1.30;;
69822;SDS011;57119;52.516;13.508;2023-04-24T14:57:03;3.67;;;2.00;;